createdAt,value
2023-01-17T00:09:52.825Z,979.3700934975873
2023-01-17T00:16:19.943Z,979.333957468567
2023-01-17T00:22:46.693Z,979.3322796872568
2023-01-17T00:33:08.034Z,979.3191820804519
2023-01-17T00:39:34.993Z,979.349613285978
2023-01-17T00:46:01.959Z,979.3255972811215
2023-01-17T00:52:26.672Z,979.3290505910292
2023-01-17T00:58:51.086Z,979.287444250386
2023-01-17T01:16:32.754Z,979.5061147437574
2023-01-17T01:22:56.646Z,979.568360228744
2023-01-17T01:29:19.859Z,979.6194842363502
2023-01-17T01:35:43.888Z,979.7289795050202
2023-01-17T01:47:21.074Z,979.9135805232477
2023-01-17T01:53:45.567Z,979.9582399741176
2023-01-17T02:02:18.563Z,979.9540318315576
2023-01-17T02:08:43.301Z,979.9945751093102
2023-01-17T02:28:26.194Z,980.0888875308796
2023-01-17T02:34:51.149Z,980.1554407460152
2023-01-17T02:41:16.626Z,980.2077938593173
2023-01-17T02:47:40.764Z,980.307701018825
2023-01-17T03:00:47.555Z,980.4404350652992
2023-01-17T03:07:11.575Z,980.5068725178977
2023-01-17T03:15:50.886Z,980.5717382102616
2023-01-17T03:22:13.597Z,980.6622710585872
2023-01-17T03:28:36.560Z,980.7364557300989
2023-01-17T03:39:13.303Z,980.8999647193174
2023-01-17T03:49:25.252Z,981.0780059213399
2023-01-17T03:55:49.846Z,981.2053722050863
2023-01-17T04:02:13.671Z,981.2910229109433
2023-01-17T04:08:37.414Z,981.460387861058
2023-01-17T04:15:00.285Z,981.5812411297998
2023-01-17T04:21:22.145Z,981.6965271627494
2023-01-17T04:36:03.440Z,982.1109832726107
2023-01-17T04:42:26.221Z,982.2042796309597
2023-01-17T04:51:33.241Z,982.3528491702868
2023-01-17T04:57:55.471Z,982.5243288036709
2023-01-17T05:04:18.013Z,982.631920446545
2023-01-17T05:10:41.319Z,982.7874081279186
2023-01-17T05:17:04.678Z,982.917190379073
2023-01-17T05:23:29.673Z,983.1366272920051
2023-01-17T05:29:56.115Z,983.3396294762869
2023-01-17T05:36:21.234Z,983.5451462595809
2023-01-17T05:42:45.088Z,983.7801440534327
2023-01-17T05:49:10.341Z,983.9760330827205
2023-01-17T05:55:33.313Z,984.1963955863981
2023-01-17T06:01:56.912Z,984.3342938485409
2023-01-17T06:08:19.777Z,984.4019735734672
2023-01-17T06:14:43.719Z,984.5034004784054
2023-01-17T06:21:07.700Z,984.550456527646
2023-01-17T06:27:32.549Z,984.6043962387216
2023-01-17T06:33:56.970Z,984.7295194779041
2023-01-17T06:40:20.681Z,984.8412289357025
2023-01-17T06:46:44.968Z,985.0810159361317
2023-01-17T06:53:10.723Z,985.1355852594227
2023-01-17T06:59:35.418Z,985.223558284793
2023-01-17T07:06:00.796Z,985.3068406113542
2023-01-17T07:12:26.383Z,985.4248595734687
2023-01-17T07:24:18.848Z,985.642132407389
2023-01-17T07:30:46.049Z,985.7807532968704
2023-01-17T07:42:58.052Z,985.8531846694062
2023-01-17T07:49:38.484Z,985.8852020483153
2023-01-17T07:56:04.937Z,985.9560874940782
2023-01-17T08:02:31.407Z,986.0503817572551
2023-01-17T08:09:00.655Z,986.1766093825867
2023-01-17T08:15:34.946Z,986.2262932656354
2023-01-17T08:22:02.841Z,986.2795302792406
2023-01-17T08:28:30.711Z,986.3835207066122
2023-01-17T08:34:59.970Z,986.4626572332722
2023-01-17T08:41:27.347Z,986.5555565235642
2023-01-17T08:47:55.562Z,986.5986640209929
2023-01-17T08:55:46.664Z,986.6843390739242
2023-01-17T09:02:14.595Z,986.7928736705132
2023-01-17T09:08:48.232Z,986.8779668120619
2023-01-17T09:19:24.257Z,986.9367504598107
2023-01-17T09:27:08.776Z,987.0431022339568
2023-01-17T09:33:36.446Z,987.1712475223486
2023-01-17T09:41:06.214Z,987.2699251161697
2023-01-17T09:50:19.392Z,987.4213558809756
2023-01-17T09:56:48.635Z,987.4789200839407
2023-01-17T10:03:18.096Z,987.5454551182747
2023-01-17T10:09:48.143Z,987.5884611998188
2023-01-17T10:16:18.087Z,987.6937285282331
2023-01-17T10:22:47.873Z,987.7849170098826
2023-01-17T10:29:20.053Z,987.8050465862124
2023-01-17T10:35:53.282Z,987.823682624258
2023-01-17T10:42:22.980Z,987.8355347892013
2023-01-17T10:51:09.627Z,987.8284054691171
2023-01-17T10:57:38.083Z,987.8293212276182
2023-01-17T11:08:48.378Z,987.8820389370303
2023-01-17T11:15:19.107Z,987.8549858006687
2023-01-17T11:21:48.362Z,987.9179094527775
2023-01-17T11:28:17.721Z,987.9430355498132
2023-01-17T11:34:54.517Z,987.9633477150013
2023-01-17T11:47:50.849Z,987.9353294481626
2023-01-17T11:54:19.400Z,987.9108570809091
2023-01-17T12:00:50.067Z,987.8959004404911
2023-01-17T12:07:18.594Z,987.8921471953123
2023-01-17T12:13:45.955Z,987.8515875023859
2023-01-17T12:20:15.004Z,987.854325234042
2023-01-17T12:29:35.922Z,987.8897829254909
2023-01-17T12:36:34.317Z,987.9069665574133
2023-01-17T12:43:19.213Z,988.0051474986624
2023-01-17T12:49:48.773Z,988.0598979127316
2023-01-17T12:56:17.559Z,988.1325030317181
2023-01-17T13:02:47.751Z,988.1757269119756
2023-01-17T13:09:15.963Z,988.1631872621363
2023-01-17T13:15:44.712Z,988.2051828088727
2023-01-17T13:22:13.373Z,988.3000798822341
2023-01-17T13:28:43.287Z,988.3320349137728
2023-01-17T13:35:13.509Z,988.3618009712194
2023-01-17T13:41:42.544Z,988.3510220936869
2023-01-17T13:54:05.305Z,988.5044805073085
2023-01-17T14:00:34.680Z,988.5742243861991
2023-01-17T14:07:04.109Z,988.5897204149356
2023-01-17T14:13:42.098Z,988.669204245471
2023-01-17T14:20:11.529Z,988.7666477296792
2023-01-17T14:26:41.084Z,988.7641989684685
2023-01-17T14:33:20.729Z,988.8052193156693
2023-01-17T14:39:50.295Z,988.8690773140457
2023-01-17T14:50:14.607Z,988.9608270282375
2023-01-17T15:07:01.265Z,989.1288291350185
2023-01-17T15:14:01.313Z,989.1709269740287
2023-01-17T15:22:34.740Z,989.1870066673853
2023-01-17T15:30:56.731Z,989.1845148433343
2023-01-17T15:43:26.224Z,989.1728387140669
2023-01-17T15:49:52.885Z,989.1759316564194
2023-01-17T15:56:18.561Z,989.2077682862673
2023-01-17T16:02:44.988Z,989.2078108306621
2023-01-17T16:09:18.860Z,989.2056728976196
2023-01-17T16:15:43.077Z,989.2582391081777
2023-01-17T16:22:08.658Z,989.3533653621301
2023-01-17T16:36:11.760Z,989.6476343304685
2023-01-17T16:42:38.205Z,989.6499781722991
2023-01-17T16:49:05.021Z,989.6661799218401
2023-01-17T16:55:34.678Z,989.7481310249144
2023-01-17T17:02:03.327Z,989.8624128967416
2023-01-17T17:19:37.369Z,990.1780437585504
2023-01-17T17:26:06.614Z,990.2318217216948
2023-01-17T17:32:34.398Z,990.2942745257336
2023-01-17T17:43:15.855Z,990.5431471428598
2023-01-17T17:55:52.118Z,990.5908392662941
2023-01-17T18:02:19.010Z,990.6314611093088
2023-01-17T18:08:49.395Z,990.6913853087209
2023-01-17T18:15:32.064Z,990.7598786611882
2023-01-17T18:22:01.548Z,990.8185240360832
2023-01-17T18:30:14.262Z,990.8688765663458
2023-01-17T18:37:12.985Z,990.9551813354224
2023-01-17T18:43:43.489Z,991.0374867498753
2023-01-17T18:50:11.196Z,991.1653570401714
2023-01-17T18:56:43.456Z,991.2263038904625
2023-01-17T19:06:25.441Z,991.2599695865197
2023-01-17T19:12:58.604Z,991.292601533009
2023-01-17T19:27:06.131Z,991.3232453524769
2023-01-17T19:33:34.839Z,991.368266146656
2023-01-17T19:40:02.757Z,991.3796551077309
2023-01-17T19:46:33.107Z,991.3954520907653
2023-01-17T19:53:04.275Z,991.4336522413162
2023-01-17T20:01:54.167Z,991.4643552392891
2023-01-17T20:08:55.606Z,991.5032188102788
2023-01-17T20:15:26.535Z,991.486416335727
2023-01-17T20:28:34.319Z,991.5080182573402
2023-01-17T20:35:04.542Z,991.5046255973189
2023-01-17T20:41:33.959Z,991.4761635777182
2023-01-17T20:48:05.015Z,991.4592177699301
2023-01-17T20:54:35.661Z,991.4394630907755
2023-01-17T21:01:06.777Z,991.4753014732061
2023-01-17T21:08:19.492Z,991.5456295208166
2023-01-17T21:17:49.679Z,991.5904405672413
2023-01-17T21:26:44.604Z,991.6467517361535
2023-01-17T21:33:17.213Z,991.6461100620152
2023-01-17T21:42:35.841Z,991.7333619743908
2023-01-17T21:59:13.355Z,991.8604880451392
2023-01-17T22:12:02.925Z,991.9083631498584
2023-01-17T22:18:33.437Z,991.9070707404389
2023-01-17T22:25:14.542Z,991.9837553589113
2023-01-17T22:31:47.952Z,992.1401480521129
2023-01-17T22:44:31.068Z,992.2364840924461
2023-01-17T22:53:13.771Z,992.2810205376937
2023-01-17T23:01:17.457Z,992.3886520060054
2023-01-17T23:15:27.221Z,992.4562127851475
2023-01-17T23:27:42.284Z,992.5864119039605
2023-01-17T23:35:46.683Z,992.6180219401159
2023-01-17T23:46:22.998Z,992.7644612514507
2023-01-17T23:55:28.416Z,992.7979709317308
